Time;durP1;ratioP1;P1;durP2;ratioP2;P2;SDS_P1;SDS_P2;PMS_P1;PMS_P2;Temp;Humidity;BMP_temperature;BMP_pressure;BME280_temperature;BME280_humidity;BME280_pressure;Samples;Min_cycle;Max_cycle;Signal;HPM_P1;HPM_P2
2022/11/30 00:01:39;;;;;;;68.87;33.00;;;7.20;99.90;;;;;;5076897;28;20465;-62
2022/11/30 00:04:08;;;;;;;73.97;35.23;;;7.20;99.90;;;;;;5076805;28;20555;-62
2022/11/30 00:06:35;;;;;;;70.60;30.17;;;7.30;99.90;;;;;;5075912;28;20483;-62
2022/11/30 00:09:02;;;;;;;81.07;32.23;;;7.30;99.90;;;;;;5058122;28;20935;-62
2022/11/30 00:11:32;;;;;;;61.47;32.20;;;7.30;99.90;;;;;;5057135;28;20458;-62
2022/11/30 00:14:01;;;;;;;72.93;33.30;;;7.30;99.90;;;;;;5056988;28;20490;-62
2022/11/30 00:16:28;;;;;;;75.63;34.17;;;7.30;99.90;;;;;;5058798;28;20945;-62
2022/11/30 00:18:58;;;;;;;68.57;33.23;;;7.40;99.90;;;;;;5069245;28;20465;-62
2022/11/30 00:21:25;;;;;;;83.03;32.97;;;7.40;99.90;;;;;;5075460;28;20462;-62
2022/11/30 00:23:53;;;;;;;82.60;35.07;;;7.40;99.90;;;;;;5074388;28;20467;-62
2022/11/30 00:26:21;;;;;;;79.60;34.67;;;7.40;99.90;;;;;;5076718;28;20535;-63
2022/11/30 00:28:57;;;;;;;73.73;33.43;;;7.40;99.90;;;;;;5066898;28;20462;-62
2022/11/30 00:31:26;;;;;;;75.10;34.20;;;7.30;99.90;;;;;;5057047;28;20739;-62
2022/11/30 00:33:53;;;;;;;63.70;32.40;;;7.30;99.90;;;;;;5056951;28;20464;-63
2022/11/30 00:36:25;;;;;;;101.17;33.40;;;7.30;99.90;;;;;;5056437;28;20556;-63
2022/11/30 00:38:53;;;;;;;78.50;33.10;;;7.30;99.90;;;;;;5061632;28;20481;-63
2022/11/30 00:41:23;;;;;;;77.00;31.07;;;7.30;99.90;;;;;;5076656;28;20468;-63
2022/11/30 00:43:50;;;;;;;74.93;33.70;;;7.30;99.90;;;;;;5075078;28;20461;-63
2022/11/30 00:46:18;;;;;;;79.00;33.77;;;7.30;99.90;;;;;;5076352;28;20559;-64
2022/11/30 00:48:51;;;;;;;82.07;35.93;;;7.40;99.90;;;;;;5075917;28;20555;-64
2022/11/30 00:51:21;;;;;;;65.70;34.30;;;7.30;99.90;;;;;;5056609;28;20452;-65
2022/11/30 00:53:52;;;;;;;52.13;29.17;;;7.40;99.90;;;;;;5058195;28;20525;-66
2022/11/30 00:56:21;;;;;;;61.47;29.90;;;7.30;99.90;;;;;;5056316;28;20516;-66
2022/11/30 00:58:48;;;;;;;56.27;29.67;;;7.30;99.90;;;;;;5056550;28;20462;-65
2022/11/30 01:01:18;;;;;;;58.83;29.80;;;7.30;99.90;;;;;;5056895;28;20468;-65
2022/11/30 01:03:47;;;;;;;63.00;30.33;;;7.30;99.90;;;;;;5057629;28;20433;-64
2022/11/30 01:06:19;;;;;;;68.43;32.60;;;7.30;99.90;;;;;;5056324;28;20515;-64
2022/11/30 01:08:46;;;;;;;72.20;33.83;;;7.30;99.90;;;;;;5056471;28;20466;-64
2022/11/30 01:11:17;;;;;;;61.13;32.50;;;7.30;99.90;;;;;;5068944;28;20461;-64
2022/11/30 01:13:44;;;;;;;60.03;29.23;;;7.30;99.90;;;;;;5079341;28;20768;-64
2022/11/30 01:16:16;;;;;;;60.17;29.87;;;7.30;99.90;;;;;;5078216;28;20908;-64
2022/11/30 01:18:48;;;;;;;57.87;28.83;;;7.30;99.90;;;;;;5079904;28;20465;-63
2022/11/30 01:21:19;;;;;;;58.43;29.30;;;7.30;99.90;;;;;;5070055;28;20871;-63
2022/11/30 01:23:47;;;;;;;63.93;28.67;;;7.30;99.90;;;;;;5059998;28;20437;-63
2022/11/30 01:26:19;;;;;;;54.43;29.30;;;7.30;99.90;;;;;;5059480;28;20458;-63
2022/11/30 01:28:51;;;;;;;53.00;28.50;;;7.30;99.90;;;;;;5059442;28;20473;-63
2022/11/30 01:31:18;;;;;;;63.23;28.23;;;7.20;99.90;;;;;;5064102;28;20457;-63
2022/11/30 01:33:49;;;;;;;55.27;28.53;;;7.30;99.90;;;;;;5079392;28;20461;-63
2022/11/30 01:36:21;;;;;;;58.63;28.73;;;7.30;99.90;;;;;;5077587;28;20483;-63
2022/11/30 01:38:52;;;;;;;57.77;28.97;;;7.30;99.90;;;;;;5079352;28;20465;-63
2022/11/30 01:41:23;;;;;;;56.53;27.23;;;7.30;99.90;;;;;;5076618;28;20465;-63
2022/11/30 01:43:52;;;;;;;54.53;27.00;;;7.30;99.90;;;;;;5059884;28;20447;-63
2022/11/30 01:46:32;;;;;;;56.10;28.50;;;7.30;99.90;;;;;;5059912;28;20466;-63
2022/11/30 01:49:11;;;;;;;54.33;27.43;;;7.30;99.90;;;;;;5059352;28;20556;-63
2022/11/30 01:51:42;;;;;;;41.00;23.80;;;7.10;99.90;;;;;;5060358;28;20465;-63
2022/11/30 01:54:13;;;;;;;46.63;23.83;;;7.10;99.90;;;;;;5079044;28;20484;-63
2022/11/30 01:56:44;;;;;;;48.07;26.43;;;7.10;99.90;;;;;;5079191;28;20471;-63
2022/11/30 01:59:12;;;;;;;45.13;24.50;;;7.10;99.90;;;;;;5078959;28;20526;-63
2022/11/30 02:01:39;;;;;;;45.40;24.83;;;7.10;99.90;;;;;;5079517;28;20912;-63
2022/11/30 02:04:12;;;;;;;43.67;23.97;;;7.10;99.90;;;;;;5060688;28;20460;-63
2022/11/30 02:06:41;;;;;;;43.07;22.43;;;7.10;99.90;;;;;;5060224;28;20480;-64
2022/11/30 02:09:17;;;;;;;36.77;22.73;;;7.10;99.90;;;;;;5059128;28;20552;-63
2022/11/30 02:11:45;;;;;;;38.17;23.10;;;7.10;99.90;;;;;;5075903;28;20735;-63
2022/11/30 02:14:30;;;;;;;42.93;24.10;;;7.10;99.90;;;;;;5078231;28;20460;-63
2022/11/30 02:17:08;;;;;;;41.53;24.40;;;7.10;99.90;;;;;;5077245;28;20432;-63
2022/11/30 02:20:10;;;;;;;39.90;23.13;;;7.10;99.90;;;;;;5078755;28;20526;-63
2022/11/30 02:22:48;;;;;;;41.60;23.30;;;7.10;99.90;;;;;;5039714;28;20463;-63
2022/11/30 02:25:25;;;;;;;37.47;23.50;;;7.20;99.90;;;;;;5058560;28;20431;-63
2022/11/30 02:28:16;;;;;;;36.10;22.47;;;7.20;99.90;;;;;;5058426;28;20825;-63
2022/11/30 02:30:48;;;;;;;40.60;22.80;;;7.10;99.90;;;;;;5057432;28;20465;-63
2022/11/30 02:33:19;;;;;;;32.57;21.37;;;7.10;99.90;;;;;;5066857;28;20440;-63
2022/11/30 02:35:50;;;;;;;42.60;22.60;;;7.10;99.90;;;;;;5078541;28;20527;-63
2022/11/30 02:38:21;;;;;;;38.37;22.17;;;7.10;99.90;;;;;;5076382;28;20462;-63
2022/11/30 02:40:50;;;;;;;33.60;21.97;;;7.00;99.90;;;;;;5078275;28;20440;-63
2022/11/30 02:43:19;;;;;;;36.47;20.37;;;7.00;99.90;;;;;;5076085;28;20892;-63
2022/11/30 02:45:57;;;;;;;34.10;20.07;;;7.00;99.90;;;;;;5076674;28;20740;-63
2022/11/30 02:48:29;;;;;;;34.50;21.57;;;7.00;99.90;;;;;;5077792;28;20465;-63
2022/11/30 02:51:00;;;;;;;30.10;18.53;;;7.00;99.90;;;;;;5078189;28;20741;-63
2022/11/30 02:53:27;;;;;;;31.63;17.70;;;7.00;99.90;;;;;;5060550;28;20862;-63
2022/11/30 02:55:56;;;;;;;34.63;19.57;;;7.00;99.90;;;;;;5059135;28;20489;-63
2022/11/30 02:58:23;;;;;;;34.43;20.30;;;7.00;99.90;;;;;;5058093;28;20444;-63
2022/11/30 03:00:51;;;;;;;32.13;21.00;;;7.00;99.90;;;;;;5057833;28;20466;-63
2022/11/30 03:03:19;;;;;;;33.87;19.13;;;7.00;99.90;;;;;;5069292;28;20552;-63
2022/11/30 03:05:46;;;;;;;33.80;20.37;;;7.10;99.90;;;;;;5077860;28;20575;-63
2022/11/30 03:08:13;;;;;;;33.77;20.07;;;7.10;99.90;;;;;;5076584;28;20437;-63
2022/11/30 03:10:40;;;;;;;33.60;18.50;;;7.10;99.90;;;;;;5077710;28;20531;-63
2022/11/30 03:13:10;;;;;;;34.67;19.07;;;7.10;99.90;;;;;;5069436;28;20902;-63
2022/11/30 03:15:37;;;;;;;37.60;19.67;;;7.10;99.90;;;;;;5058679;28;20486;-63
2022/11/30 03:18:06;;;;;;;34.20;21.03;;;7.10;99.90;;;;;;5057784;28;20465;-63
2022/11/30 03:20:34;;;;;;;34.67;19.97;;;7.10;99.90;;;;;;5057440;28;20436;-63
2022/11/30 03:23:01;;;;;;;34.90;20.77;;;7.10;99.90;;;;;;5057863;28;20551;-63
2022/11/30 03:25:31;;;;;;;43.90;22.23;;;7.10;99.90;;;;;;5075572;28;20449;-63
2022/11/30 03:28:00;;;;;;;35.03;21.07;;;7.10;99.90;;;;;;5077578;28;20505;-63
2022/11/30 03:30:28;;;;;;;42.47;19.47;;;7.10;99.90;;;;;;5077037;28;20461;-63
2022/11/30 03:32:55;;;;;;;37.83;21.20;;;7.00;99.90;;;;;;5077045;28;20660;-63
2022/11/30 03:35:24;;;;;;;41.70;21.27;;;7.10;99.90;;;;;;5058461;28;20482;-63
2022/11/30 03:37:53;;;;;;;42.10;19.13;;;7.00;99.90;;;;;;5058746;28;20494;-63
2022/11/30 03:40:25;;;;;;;42.33;19.33;;;7.10;99.90;;;;;;5057215;28;20462;-63
2022/11/30 03:42:52;;;;;;;37.13;19.77;;;7.10;99.90;;;;;;5057013;28;20447;-63
2022/11/30 03:45:19;;;;;;;35.63;19.27;;;7.00;99.90;;;;;;5070472;28;20771;-63
2022/11/30 03:47:46;;;;;;;33.20;21.13;;;7.00;99.90;;;;;;5074754;28;20461;-63
2022/11/30 03:50:14;;;;;;;36.63;19.80;;;7.00;99.90;;;;;;5077001;28;20469;-63
2022/11/30 03:52:43;;;;;;;46.67;18.70;;;7.00;99.90;;;;;;5076991;28;20878;-63
2022/11/30 03:55:21;;;;;;;41.17;19.60;;;6.90;99.90;;;;;;5076514;28;20929;-63
2022/11/30 03:57:48;;;;;;;31.97;19.03;;;6.90;99.90;;;;;;5076907;28;20457;-63
2022/11/30 04:00:16;;;;;;;40.90;20.10;;;7.00;99.90;;;;;;5060991;28;20499;-63
2022/11/30 04:02:43;;;;;;;51.43;20.50;;;6.90;99.90;;;;;;5057141;28;20774;-63
2022/11/30 04:05:10;;;;;;;44.33;18.73;;;6.90;99.90;;;;;;5061367;28;20946;-63
2022/11/30 04:07:38;;;;;;;42.13;18.40;;;6.80;99.90;;;;;;5075421;28;20469;-63
2022/11/30 04:10:08;;;;;;;74.10;21.73;;;6.70;99.90;;;;;;5076882;28;20560;-63
2022/11/30 04:12:35;;;;;;;46.97;20.03;;;6.70;99.90;;;;;;5077005;28;20931;-63
2022/11/30 04:15:02;;;;;;;35.10;20.87;;;6.70;99.90;;;;;;5076230;28;20493;-63
2022/11/30 04:17:30;;;;;;;51.17;23.43;;;6.60;99.90;;;;;;5058126;28;20880;-63
2022/11/30 04:19:57;;;;;;;52.13;23.50;;;6.60;99.90;;;;;;5056490;28;20439;-63
2022/11/30 04:22:24;;;;;;;46.50;24.20;;;6.60;99.90;;;;;;5056335;28;20845;-63
2022/11/30 04:24:51;;;;;;;44.40;23.43;;;6.60;99.90;;;;;;5056431;28;20433;-63
2022/11/30 04:27:20;;;;;;;47.60;22.60;;;6.50;99.90;;;;;;5070969;28;20466;-63
2022/11/30 04:29:47;;;;;;;41.23;24.50;;;6.40;99.90;;;;;;5077085;28;20487;-63
2022/11/30 04:32:14;;;;;;;46.90;24.87;;;6.50;99.90;;;;;;5056553;28;20444;-63
2022/11/30 04:34:42;;;;;;;42.40;24.30;;;6.50;99.90;;;;;;5056259;28;20473;-63
2022/11/30 04:37:09;;;;;;;43.00;23.37;;;6.40;99.90;;;;;;5066128;28;20519;-63
2022/11/30 04:39:38;;;;;;;39.80;24.97;;;6.30;99.90;;;;;;5072942;28;20764;-63
2022/11/30 04:42:06;;;;;;;47.43;27.63;;;6.30;99.90;;;;;;5062532;28;20462;-63
2022/11/30 04:44:35;;;;;;;45.70;28.00;;;6.20;99.90;;;;;;5057311;28;20466;-63
2022/11/30 04:47:02;;;;;;;54.47;28.70;;;6.10;99.90;;;;;;5056668;28;20463;-63
2022/11/30 04:49:29;;;;;;;56.33;31.17;;;6.10;99.90;;;;;;5060905;28;20469;-63
2022/11/30 04:51:57;;;;;;;56.10;31.80;;;6.00;99.90;;;;;;5068961;28;20471;-63
2022/11/30 04:54:24;;;;;;;69.73;32.60;;;6.00;99.90;;;;;;5080310;28;20435;-63
2022/11/30 04:56:54;;;;;;;79.00;34.50;;;6.00;99.90;;;;;;5078669;28;20516;-63
2022/11/30 04:59:21;;;;;;;61.00;33.57;;;5.90;99.90;;;;;;5080161;28;20465;-63
2022/11/30 05:01:50;;;;;;;61.93;31.93;;;5.90;99.90;;;;;;5075470;28;20459;-63
2022/11/30 05:04:17;;;;;;;68.60;34.97;;;5.90;99.90;;;;;;5059482;28;20530;-63
2022/11/30 05:06:48;;;;;;;73.27;34.93;;;5.90;99.90;;;;;;5060928;28;20468;-62
2022/11/30 05:09:15;;;;;;;59.87;33.40;;;5.90;99.90;;;;;;5059919;28;20744;-63
2022/11/30 05:11:42;;;;;;;59.00;36.10;;;5.90;99.90;;;;;;5059904;28;20901;-62
2022/11/30 05:14:11;;;;;;;59.07;34.83;;;5.80;99.90;;;;;;5080178;28;20730;-62
2022/11/30 05:16:38;;;;;;;62.03;35.33;;;5.90;99.90;;;;;;5079885;28;20530;-62
2022/11/30 05:19:07;;;;;;;51.20;32.13;;;5.80;99.90;;;;;;5080341;28;20457;-62
2022/11/30 05:21:34;;;;;;;53.97;28.27;;;5.80;99.90;;;;;;5079645;28;20443;-62
2022/11/30 05:24:03;;;;;;;51.23;30.50;;;5.70;99.90;;;;;;5064096;28;20909;-62
2022/11/30 05:26:32;;;;;;;57.10;32.13;;;5.60;99.90;;;;;;5059989;28;20461;-62
2022/11/30 05:28:59;;;;;;;48.50;30.30;;;5.70;99.90;;;;;;5078320;28;20462;-62
2022/11/30 05:31:27;;;;;;;47.57;29.07;;;5.70;99.90;;;;;;5078847;28;20902;-62
2022/11/30 05:33:55;;;;;;;47.27;28.53;;;5.60;99.90;;;;;;5068630;28;20437;-62
2022/11/30 05:36:24;;;;;;;49.30;28.03;;;5.70;99.90;;;;;;5060247;28;20486;-62
2022/11/30 05:38:51;;;;;;;46.83;28.87;;;5.70;99.90;;;;;;5059684;28;20465;-62
2022/11/30 05:41:21;;;;;;;49.63;31.67;;;5.60;99.90;;;;;;5059092;28;20462;-62
2022/11/30 05:43:48;;;;;;;67.37;43.40;;;5.60;99.90;;;;;;5064822;28;20436;-62
2022/11/30 05:46:18;;;;;;;50.50;31.90;;;5.70;99.90;;;;;;5079211;28;20457;-61
2022/11/30 05:48:45;;;;;;;56.47;31.80;;;5.70;99.90;;;;;;5074584;28;21183;-62
2022/11/30 05:51:15;;;;;;;51.70;32.50;;;5.70;99.90;;;;;;5065006;28;20470;-62
2022/11/30 05:53:44;;;;;;;44.60;30.83;;;5.60;99.90;;;;;;5071297;28;20419;-62
2022/11/30 05:56:17;;;;;;;44.63;26.57;;;5.60;99.90;;;;;;5086805;28;20481;-62
2022/11/30 05:58:44;;;;;;;43.47;28.30;;;5.60;99.90;;;;;;5082774;28;20542;-62
2022/11/30 06:01:18;;;;;;;44.50;28.00;;;5.60;99.90;;;;;;5088253;28;20469;-62
2022/11/30 06:03:46;;;;;;;47.53;28.10;;;5.60;99.90;;;;;;5084128;28;20428;-62
2022/11/30 06:06:15;;;;;;;43.33;26.07;;;5.60;99.90;;;;;;5085597;28;20454;-62
2022/11/30 06:08:44;;;;;;;46.80;28.60;;;5.60;99.90;;;;;;5085670;28;20566;-62
2022/11/30 06:11:11;;;;;;;48.13;27.93;;;5.60;99.90;;;;;;5083620;28;20465;-62
2022/11/30 06:13:40;;;;;;;46.97;30.00;;;5.70;99.90;;;;;;5087247;28;20506;-62
2022/11/30 06:16:08;;;;;;;42.03;25.67;;;5.70;99.90;;;;;;5086886;28;20470;-62
2022/11/30 06:18:36;;;;;;;42.80;29.33;;;5.70;99.90;;;;;;5085104;28;20435;-62
2022/11/30 06:21:06;;;;;;;36.90;25.63;;;5.60;99.90;;;;;;5095236;28;20509;-62
2022/11/30 06:23:34;;;;;;;36.73;24.27;;;5.50;99.90;;;;;;5059223;28;20465;-62
2022/11/30 06:26:05;;;;;;;35.10;25.37;;;5.60;99.90;;;;;;5058732;28;20505;-62
2022/11/30 06:28:36;;;;;;;38.00;26.90;;;5.60;99.90;;;;;;5068485;28;20506;-62
2022/11/30 06:31:05;;;;;;;41.50;26.40;;;5.60;99.90;;;;;;5074691;28;20472;-62
2022/11/30 06:33:33;;;;;;;39.50;25.63;;;5.70;99.90;;;;;;5059462;28;20437;-62
2022/11/30 06:36:02;;;;;;;35.10;23.73;;;5.70;99.90;;;;;;5058410;28;20492;-63
2022/11/30 06:38:29;;;;;;;44.03;27.67;;;5.80;99.90;;;;;;5061596;28;20475;-63
2022/11/30 06:41:08;;;;;;;32.00;24.30;;;5.70;99.90;;;;;;5076999;28;20436;-63
2022/11/30 06:43:38;;;;;;;35.17;24.73;;;5.70;99.90;;;;;;5057055;28;20462;-63
2022/11/30 06:46:07;;;;;;;35.87;26.20;;;5.60;99.90;;;;;;5055713;28;20462;-63
2022/11/30 06:48:34;;;;;;;37.50;26.50;;;5.70;99.90;;;;;;5057936;28;20510;-63
2022/11/30 06:51:01;;;;;;;35.70;24.63;;;5.70;99.90;;;;;;5076519;28;20467;-63
2022/11/30 06:53:31;;;;;;;33.80;24.30;;;5.70;99.90;;;;;;5075982;28;20479;-63
2022/11/30 06:55:58;;;;;;;38.23;26.10;;;5.60;99.90;;;;;;5077535;28;20525;-63
2022/11/30 06:58:27;;;;;;;37.23;24.70;;;5.60;99.90;;;;;;5077791;28;20461;-63
2022/11/30 07:00:55;;;;;;;40.60;24.50;;;5.70;99.90;;;;;;5059740;28;20437;-63
2022/11/30 07:03:23;;;;;;;36.10;24.83;;;5.70;99.90;;;;;;5085265;28;20436;-63
2022/11/30 07:05:50;;;;;;;36.20;23.27;;;5.60;99.90;;;;;;5083386;28;20451;-63
2022/11/30 07:08:17;;;;;;;40.77;26.37;;;5.60;99.90;;;;;;5085092;28;20464;-63
2022/11/30 07:10:49;;;;;;;38.03;25.30;;;5.60;99.90;;;;;;5080776;28;20460;-63
2022/11/30 07:13:21;;;;;;;36.63;24.57;;;5.70;99.90;;;;;;5081691;28;20445;-63
2022/11/30 07:15:54;;;;;;;38.00;24.10;;;5.80;99.90;;;;;;5083087;28;20459;-63
2022/11/30 07:18:21;;;;;;;40.77;23.53;;;5.70;99.90;;;;;;5083942;28;20454;-63
2022/11/30 07:20:51;;;;;;;35.77;23.73;;;5.70;99.90;;;;;;5085391;28;20472;-63
2022/11/30 07:26:08;;;;;;;36.00;24.23;;;5.70;99.90;;;;;;5080503;28;20776;-63
2022/11/30 07:28:36;;;;;;;32.70;23.00;;;5.70;99.90;;;;;;5086922;28;20545;-63
2022/11/30 07:31:14;;;;;;;38.67;24.50;;;5.70;99.90;;;;;;5083449;28;20457;-63
2022/11/30 07:33:41;;;;;;;34.77;23.47;;;5.70;99.90;;;;;;5082990;28;20510;-63
2022/11/30 07:36:09;;;;;;;35.10;25.37;;;5.80;99.90;;;;;;5085184;28;20493;-63
2022/11/30 07:38:39;;;;;;;37.07;25.77;;;5.80;99.90;;;;;;5091142;28;20861;-63
2022/11/30 07:41:07;;;;;;;40.13;25.43;;;5.70;99.90;;;;;;5085161;28;20435;-63
2022/11/30 07:43:38;;;;;;;36.57;26.00;;;5.70;99.90;;;;;;5085365;28;20467;-63
2022/11/30 07:46:11;;;;;;;36.03;24.43;;;5.80;99.90;;;;;;5082855;28;20533;-63
2022/11/30 07:48:42;;;;;;;35.70;25.33;;;5.80;99.90;;;;;;5085550;28;20758;-63
2022/11/30 07:51:13;;;;;;;38.97;25.53;;;5.70;99.90;;;;;;5081583;28;20500;-63
2022/11/30 07:53:41;;;;;;;40.97;26.20;;;5.70;99.90;;;;;;5086599;28;20466;-63
2022/11/30 07:56:10;;;;;;;37.17;24.83;;;5.80;99.90;;;;;;5084590;28;20471;-63
2022/11/30 07:58:38;;;;;;;35.77;25.20;;;5.80;99.90;;;;;;5085334;28;20452;-63
2022/11/30 08:01:12;;;;;;;39.20;25.37;;;5.80;99.90;;;;;;5085424;28;20531;-63
2022/11/30 08:03:52;;;;;;;40.83;25.27;;;5.80;99.90;;;;;;5083352;28;20788;-63
2022/11/30 08:06:28;;;;;;;36.93;23.27;;;5.90;99.90;;;;;;5024534;28;20488;-63
2022/11/30 08:08:59;;;;;;;41.17;25.77;;;5.90;99.90;;;;;;5025055;28;20452;-63
2022/11/30 08:11:36;;;;;;;36.93;25.83;;;5.80;99.90;;;;;;5023216;28;20550;-63
2022/11/30 08:14:06;;;;;;;32.43;23.57;;;5.90;99.90;;;;;;5023361;28;20456;-63
2022/11/30 08:16:38;;;;;;;40.20;25.87;;;6.00;99.90;;;;;;5021140;28;20476;-63
2022/11/30 08:19:08;;;;;;;39.57;27.10;;;6.00;99.90;;;;;;5023758;28;20839;-63
2022/11/30 08:21:38;;;;;;;35.27;24.70;;;6.00;99.90;;;;;;5024572;28;20463;-63
2022/11/30 08:24:14;;;;;;;38.97;23.93;;;6.00;99.90;;;;;;5027823;28;20962;-63
2022/11/30 08:26:41;;;;;;;42.50;24.93;;;6.00;99.90;;;;;;5028690;28;20460;-63
2022/11/30 08:29:10;;;;;;;40.73;26.23;;;5.90;99.90;;;;;;5027300;28;20505;-63
2022/11/30 08:31:40;;;;;;;34.67;23.00;;;5.90;99.90;;;;;;5029563;28;20456;-63
2022/11/30 08:34:10;;;;;;;37.67;25.33;;;6.00;99.90;;;;;;5025324;28;20854;-63
2022/11/30 08:36:38;;;;;;;38.60;24.17;;;6.00;99.90;;;;;;5027828;28;20499;-63
2022/11/30 08:39:14;;;;;;;39.90;25.50;;;5.90;99.90;;;;;;5026161;28;20812;-63
2022/11/30 08:41:42;;;;;;;36.80;26.83;;;5.90;99.90;;;;;;5026371;28;20806;-61
2022/11/30 08:44:11;;;;;;;45.13;27.20;;;5.90;99.90;;;;;;5027479;28;20550;-61
2022/11/30 08:46:40;;;;;;;41.93;26.87;;;6.00;99.90;;;;;;5027721;28;20488;-61
2022/11/30 08:49:07;;;;;;;41.53;28.10;;;6.00;99.90;;;;;;5028180;28;20764;-60
2022/11/30 08:51:35;;;;;;;48.07;29.00;;;6.10;99.90;;;;;;5029678;28;20911;-60
2022/11/30 08:54:03;;;;;;;43.10;29.20;;;6.10;99.90;;;;;;5030327;28;20460;-61
2022/11/30 08:56:31;;;;;;;42.00;27.47;;;6.10;99.90;;;;;;5027319;28;20550;-61
2022/11/30 08:58:58;;;;;;;36.90;26.37;;;6.10;99.90;;;;;;5029341;28;20896;-61
2022/11/30 09:01:26;;;;;;;43.00;27.33;;;6.20;99.90;;;;;;5028998;28;20551;-61
2022/11/30 09:03:59;;;;;;;40.03;26.70;;;6.10;99.90;;;;;;5035600;28;20461;-61
2022/11/30 09:06:28;;;;;;;42.47;28.37;;;6.10;99.90;;;;;;5088488;28;20430;-61
2022/11/30 09:08:58;;;;;;;52.63;33.30;;;6.10;99.90;;;;;;5086325;28;20531;-63
2022/11/30 09:11:27;;;;;;;46.70;31.60;;;6.10;99.90;;;;;;5087219;28;20813;-61
2022/11/30 09:13:56;;;;;;;47.40;29.83;;;6.20;99.90;;;;;;5088471;28;20435;-61
2022/11/30 09:16:25;;;;;;;36.00;25.30;;;6.30;99.90;;;;;;5087876;28;20992;-61
2022/11/30 09:18:57;;;;;;;40.27;27.00;;;6.20;99.90;;;;;;5085023;28;20465;-61
2022/11/30 09:21:25;;;;;;;37.57;25.63;;;6.30;99.90;;;;;;5086879;28;20889;-61
2022/11/30 09:23:53;;;;;;;39.30;26.40;;;6.30;99.90;;;;;;5088976;28;20448;-61
2022/11/30 09:26:23;;;;;;;43.80;28.57;;;6.10;99.90;;;;;;5088226;28;20510;-61
2022/11/30 09:28:54;;;;;;;40.43;27.73;;;6.20;99.90;;;;;;5082462;28;20458;-61
2022/11/30 09:31:25;;;;;;;44.30;29.33;;;6.20;99.90;;;;;;5087926;28;20469;-61
2022/11/30 09:33:55;;;;;;;41.83;28.00;;;6.20;99.90;;;;;;5085523;28;20454;-61
2022/11/30 09:36:26;;;;;;;40.03;26.10;;;6.10;99.90;;;;;;5087726;28;20488;-61
2022/11/30 09:38:53;;;;;;;44.63;30.47;;;6.10;99.90;;;;;;5085240;28;20436;-61
2022/11/30 09:41:45;;;;;;;37.30;26.67;;;6.10;99.90;;;;;;5086083;28;20539;-61
2022/11/30 09:44:27;;;;;;;42.30;27.07;;;6.10;99.90;;;;;;5085866;28;20464;-61
2022/11/30 09:47:04;;;;;;;37.27;25.67;;;6.20;99.90;;;;;;5082286;28;20439;-61
2022/11/30 09:49:36;;;;;;;39.67;24.80;;;6.20;99.90;;;;;;5081386;28;20435;-61
2022/11/30 09:52:05;;;;;;;37.67;26.03;;;6.20;99.90;;;;;;5086185;28;20429;-61
2022/11/30 09:54:38;;;;;;;44.33;27.87;;;6.30;99.90;;;;;;5086577;28;20472;-61
2022/11/30 09:57:19;;;;;;;36.93;26.03;;;6.30;99.90;;;;;;5086246;28;20542;-62
2022/11/30 09:59:53;;;;;;;37.70;25.33;;;6.20;99.90;;;;;;5085335;28;20468;-61
2022/11/30 10:02:28;;;;;;;35.37;24.13;;;6.20;99.90;;;;;;5085868;28;20881;-62
2022/11/30 10:04:58;;;;;;;37.37;24.97;;;6.30;99.90;;;;;;5083529;28;20462;-63
2022/11/30 10:07:43;;;;;;;34.13;23.70;;;6.30;99.90;;;;;;5088073;28;20430;-63
2022/11/30 10:10:23;;;;;;;38.70;26.10;;;6.30;99.90;;;;;;5083444;28;20436;-61
2022/11/30 10:13:00;;;;;;;32.90;23.83;;;6.30;99.90;;;;;;5081384;28;20438;-61
2022/11/30 10:15:42;;;;;;;33.90;23.10;;;6.30;99.90;;;;;;5085049;28;20427;-60
2022/11/30 10:18:23;;;;;;;34.43;23.93;;;6.30;99.90;;;;;;5079106;28;20460;-60
2022/11/30 10:21:04;;;;;;;36.77;24.80;;;6.30;99.90;;;;;;5077425;28;20462;-60
2022/11/30 10:24:04;;;;;;;37.90;23.67;;;6.30;99.90;;;;;;5077495;28;20530;-60
2022/11/30 10:26:40;;;;;;;35.30;24.03;;;6.30;99.90;;;;;;5033835;28;20455;-60
2022/11/30 10:29:18;;;;;;;34.40;23.43;;;6.30;99.90;;;;;;5086274;28;20431;-60
2022/11/30 10:31:48;;;;;;;32.90;23.83;;;6.30;99.90;;;;;;5086611;28;20459;-60
2022/11/30 10:34:21;;;;;;;38.03;23.77;;;6.40;99.90;;;;;;5083634;28;20508;-60
2022/11/30 10:36:55;;;;;;;35.30;24.20;;;6.50;99.90;;;;;;5072715;28;20966;-60
2022/11/30 10:39:28;;;;;;;34.93;24.80;;;6.60;99.90;;;;;;5075328;28;20448;-60
2022/11/30 10:42:01;;;;;;;30.83;21.40;;;6.60;99.90;;;;;;5077737;28;20856;-60
2022/11/30 10:44:34;;;;;;;34.60;23.40;;;6.50;99.90;;;;;;5076545;28;20469;-60
2022/11/30 10:47:05;;;;;;;31.07;22.03;;;6.50;99.90;;;;;;5060499;28;20501;-60
2022/11/30 10:49:33;;;;;;;29.87;21.70;;;6.50;99.90;;;;;;5058123;28;20742;-60
2022/11/30 10:52:06;;;;;;;32.63;23.37;;;6.40;99.90;;;;;;5058056;28;20794;-60
2022/11/30 10:54:39;;;;;;;33.20;24.57;;;6.50;99.90;;;;;;5058428;28;20437;-60
2022/11/30 10:57:18;;;;;;;33.87;26.10;;;6.50;99.90;;;;;;5070136;28;20491;-60
2022/11/30 10:59:50;;;;;;;33.57;23.90;;;6.60;99.90;;;;;;5078018;28;20560;-60
2022/11/30 11:02:39;;;;;;;34.33;24.23;;;6.50;99.90;;;;;;5075941;28;20465;-60
2022/11/30 11:05:18;;;;;;;34.20;23.27;;;6.50;99.90;;;;;;5077881;28;20527;-60
2022/11/30 11:08:03;;;;;;;31.93;23.43;;;6.70;99.90;;;;;;5092409;28;20800;-61
2022/11/30 11:10:35;;;;;;;32.60;24.57;;;6.70;99.90;;;;;;5073023;28;20509;-61
2022/11/30 11:13:07;;;;;;;34.10;23.93;;;6.50;99.90;;;;;;5074485;28;20457;-61
2022/11/30 11:15:35;;;;;;;31.40;22.13;;;6.60;99.90;;;;;;5072907;28;20468;-62
2022/11/30 11:18:27;;;;;;;30.67;22.93;;;6.50;99.90;;;;;;5073015;28;20465;-61
2022/11/30 11:21:03;;;;;;;30.37;22.00;;;6.50;99.90;;;;;;5053891;28;20920;-62
2022/11/30 11:23:37;;;;;;;34.33;23.00;;;6.40;99.90;;;;;;5054340;28;20496;-62
2022/11/30 11:26:07;;;;;;;32.40;23.23;;;6.40;99.90;;;;;;5054510;28;20498;-62
2022/11/30 11:28:44;;;;;;;37.87;25.60;;;6.40;99.90;;;;;;5067946;28;20883;-62
2022/11/30 11:31:28;;;;;;;35.60;25.60;;;6.40;99.90;;;;;;5072939;28;20468;-62
2022/11/30 11:33:57;;;;;;;39.00;26.30;;;6.50;99.90;;;;;;5056319;28;20451;-62
2022/11/30 11:36:28;;;;;;;33.43;23.60;;;6.50;99.90;;;;;;5062812;28;20511;-62
2022/11/30 11:38:57;;;;;;;34.73;24.43;;;6.50;99.90;;;;;;5064178;28;20721;-62
2022/11/30 11:41:27;;;;;;;35.20;24.63;;;6.40;99.90;;;;;;5061220;28;20508;-62
2022/11/30 11:44:02;;;;;;;35.17;25.60;;;6.40;99.90;;;;;;5071798;28;20755;-62
2022/11/30 11:46:31;;;;;;;34.77;24.90;;;6.40;99.90;;;;;;5073763;28;20577;-62
2022/11/30 11:49:01;;;;;;;34.80;25.23;;;6.40;99.90;;;;;;5072755;28;20469;-62
2022/11/30 11:51:36;;;;;;;36.50;24.90;;;6.40;99.90;;;;;;5073428;28;20483;-62
2022/11/30 11:54:19;;;;;;;38.33;25.00;;;6.50;99.90;;;;;;5073377;28;20465;-62
2022/11/30 11:56:47;;;;;;;34.47;25.00;;;6.40;99.90;;;;;;5072247;28;20457;-62
2022/11/30 11:59:24;;;;;;;37.13;25.37;;;6.40;99.90;;;;;;5072541;28;20898;-62
2022/11/30 12:02:03;;;;;;;36.70;25.40;;;6.40;99.90;;;;;;5073341;28;21029;-62
2022/11/30 12:04:48;;;;;;;37.80;28.43;;;6.40;99.90;;;;;;5072852;28;20466;-62
2022/11/30 12:07:30;;;;;;;37.10;27.63;;;6.50;99.90;;;;;;5021046;28;20480;-62
2022/11/30 12:10:22;;;;;;;37.53;25.30;;;6.40;99.90;;;;;;5072479;28;20469;-62
2022/11/30 12:12:49;;;;;;;41.17;26.97;;;6.40;99.90;;;;;;5073183;28;20461;-62
2022/11/30 12:15:18;;;;;;;38.40;25.23;;;6.30;99.90;;;;;;5072097;28;20443;-62
2022/11/30 12:18:00;;;;;;;37.13;25.30;;;6.40;99.90;;;;;;5068071;28;20917;-62
2022/11/30 12:20:38;;;;;;;34.70;24.33;;;6.50;99.90;;;;;;5059165;28;20437;-62
2022/11/30 12:23:36;;;;;;;41.67;28.00;;;6.40;99.90;;;;;;5060017;28;20462;-62
2022/11/30 12:26:13;;;;;;;38.93;25.20;;;6.40;99.90;;;;;;5055433;28;20961;-62
2022/11/30 12:28:50;;;;;;;34.40;23.70;;;6.30;99.90;;;;;;5059300;28;20447;-62
2022/11/30 12:31:34;;;;;;;36.30;23.47;;;6.30;99.90;;;;;;5057947;28;20466;-62
2022/11/30 12:34:08;;;;;;;37.90;26.50;;;6.30;99.90;;;;;;5058623;28;20462;-62
2022/11/30 12:36:46;;;;;;;37.33;26.57;;;6.20;99.90;;;;;;5057206;28;20460;-62
2022/11/30 12:39:24;;;;;;;38.00;25.80;;;6.20;99.90;;;;;;5057629;28;20594;-62
2022/11/30 12:42:07;;;;;;;42.53;27.13;;;6.20;99.90;;;;;;5056713;28;20920;-62
2022/11/30 12:44:46;;;;;;;40.40;24.80;;;6.10;99.90;;;;;;5055762;28;20561;-63
2022/11/30 12:47:28;;;;;;;34.87;24.83;;;6.20;99.90;;;;;;5051538;28;20801;-63
2022/11/30 12:50:11;;;;;;;34.00;24.70;;;6.20;99.90;;;;;;5055507;28;20470;-63
2022/11/30 12:52:48;;;;;;;32.60;23.93;;;6.20;99.90;;;;;;5054308;28;20478;-63
2022/11/30 12:55:26;;;;;;;30.53;22.30;;;6.20;99.90;;;;;;5056261;28;20714;-63
2022/11/30 12:58:03;;;;;;;29.63;20.63;;;6.20;99.90;;;;;;5055269;28;20468;-64
2022/11/30 13:00:39;;;;;;;31.00;22.37;;;6.30;99.90;;;;;;5058110;28;20462;-64